sensor_id;sensor_type;location;lat;lon;timestamp;temperature;humidity
32502;DHT22;18952;52.516;13.460;2023-04-15T00:01:06;6.80;99.90
32502;DHT22;18952;52.516;13.460;2023-04-15T00:03:32;6.80;99.90
32502;DHT22;18952;52.516;13.460;2023-04-15T00:06:00;6.80;99.90
32502;DHT22;18952;52.516;13.460;2023-04-15T00:08:26;6.80;99.90
32502;DHT22;18952;52.516;13.460;2023-04-15T00:10:53;6.80;99.90
32502;DHT22;18952;52.516;13.460;2023-04-15T00:13:20;6.80;99.90
32502;DHT22;18952;52.516;13.460;2023-04-15T00:15:47;6.80;99.90
32502;DHT22;18952;52.516;13.460;2023-04-15T00:18:13;6.80;99.90
32502;DHT22;18952;52.516;13.460;2023-04-15T00:20:40;6.80;99.90
32502;DHT22;18952;52.516;13.460;2023-04-15T00:23:07;6.80;99.90
32502;DHT22;18952;52.516;13.460;2023-04-15T00:25:33;6.80;99.90
32502;DHT22;18952;52.516;13.460;2023-04-15T00:28:00;6.80;99.90
32502;DHT22;18952;52.516;13.460;2023-04-15T00:30:27;6.80;99.90
32502;DHT22;18952;52.516;13.460;2023-04-15T00:32:54;6.80;99.90
32502;DHT22;18952;52.516;13.460;2023-04-15T00:35:21;6.80;99.90
32502;DHT22;18952;52.516;13.460;2023-04-15T00:37:49;6.80;99.90
32502;DHT22;18952;52.516;13.460;2023-04-15T00:40:18;6.80;99.90
32502;DHT22;18952;52.516;13.460;2023-04-15T00:42:47;6.90;99.90
32502;DHT22;18952;52.516;13.460;2023-04-15T00:45:16;6.90;99.90
32502;DHT22;18952;52.516;13.460;2023-04-15T00:47:47;6.90;99.90
32502;DHT22;18952;52.516;13.460;2023-04-15T00:50:15;6.90;99.90
32502;DHT22;18952;52.516;13.460;2023-04-15T00:52:43;6.90;99.90
32502;DHT22;18952;52.516;13.460;2023-04-15T00:55:10;6.90;99.90
32502;DHT22;18952;52.516;13.460;2023-04-15T00:57:38;6.90;99.90
32502;DHT22;18952;52.516;13.460;2023-04-15T01:00:06;6.90;99.90
32502;DHT22;18952;52.516;13.460;2023-04-15T01:02:34;7.00;99.90
32502;DHT22;18952;52.516;13.460;2023-04-15T01:05:02;7.00;99.90
32502;DHT22;18952;52.516;13.460;2023-04-15T01:07:29;7.00;99.90
32502;DHT22;18952;52.516;13.460;2023-04-15T01:09:56;7.10;99.90
32502;DHT22;18952;52.516;13.460;2023-04-15T01:12:25;7.10;99.90
32502;DHT22;18952;52.516;13.460;2023-04-15T01:14:53;7.10;99.90
32502;DHT22;18952;52.516;13.460;2023-04-15T01:17:20;7.10;99.90
32502;DHT22;18952;52.516;13.460;2023-04-15T01:19:47;7.10;99.90
32502;DHT22;18952;52.516;13.460;2023-04-15T01:22:15;7.10;99.90
32502;DHT22;18952;52.516;13.460;2023-04-15T01:24:54;7.10;99.90
32502;DHT22;18952;52.516;13.460;2023-04-15T01:27:21;7.10;99.90
32502;DHT22;18952;52.516;13.460;2023-04-15T01:29:48;7.10;99.90
32502;DHT22;18952;52.516;13.460;2023-04-15T01:32:16;7.10;99.90
32502;DHT22;18952;52.516;13.460;2023-04-15T01:34:42;7.10;99.90
32502;DHT22;18952;52.516;13.460;2023-04-15T01:37:11;7.10;99.90
32502;DHT22;18952;52.516;13.460;2023-04-15T01:39:37;7.10;99.90
32502;DHT22;18952;52.516;13.460;2023-04-15T01:42:09;7.10;99.90
32502;DHT22;18952;52.516;13.460;2023-04-15T01:44:37;7.00;99.90
32502;DHT22;18952;52.516;13.460;2023-04-15T01:47:04;7.10;99.90
32502;DHT22;18952;52.516;13.460;2023-04-15T01:49:31;7.00;99.90
32502;DHT22;18952;52.516;13.460;2023-04-15T01:51:58;7.10;99.90
32502;DHT22;18952;52.516;13.460;2023-04-15T01:54:25;7.10;99.90
32502;DHT22;18952;52.516;13.460;2023-04-15T01:56:52;7.10;99.90
32502;DHT22;18952;52.516;13.460;2023-04-15T01:59:19;7.10;99.90
32502;DHT22;18952;52.516;13.460;2023-04-15T02:01:45;7.10;99.90
32502;DHT22;18952;52.516;13.460;2023-04-15T02:04:12;7.10;99.90
32502;DHT22;18952;52.516;13.460;2023-04-15T02:06:41;7.10;99.90
32502;DHT22;18952;52.516;13.460;2023-04-15T02:09:08;7.10;99.90
32502;DHT22;18952;52.516;13.460;2023-04-15T02:11:37;7.20;99.90
32502;DHT22;18952;52.516;13.460;2023-04-15T02:14:05;7.10;99.90
32502;DHT22;18952;52.516;13.460;2023-04-15T02:16:33;7.10;99.90
32502;DHT22;18952;52.516;13.460;2023-04-15T02:19:03;7.20;99.90
32502;DHT22;18952;52.516;13.460;2023-04-15T02:21:30;7.20;99.90
32502;DHT22;18952;52.516;13.460;2023-04-15T02:23:57;7.20;99.90
32502;DHT22;18952;52.516;13.460;2023-04-15T02:26:23;7.20;99.90
32502;DHT22;18952;52.516;13.460;2023-04-15T02:28:50;7.10;99.90
32502;DHT22;18952;52.516;13.460;2023-04-15T02:31:17;7.10;99.90
32502;DHT22;18952;52.516;13.460;2023-04-15T02:33:44;7.10;99.90
32502;DHT22;18952;52.516;13.460;2023-04-15T02:36:10;7.00;99.90
32502;DHT22;18952;52.516;13.460;2023-04-15T02:38:37;7.10;99.90
32502;DHT22;18952;52.516;13.460;2023-04-15T02:41:04;7.10;99.90
32502;DHT22;18952;52.516;13.460;2023-04-15T02:43:31;7.10;99.90
32502;DHT22;18952;52.516;13.460;2023-04-15T02:45:58;7.20;99.90
32502;DHT22;18952;52.516;13.460;2023-04-15T02:48:25;7.10;99.90
32502;DHT22;18952;52.516;13.460;2023-04-15T02:50:52;7.20;99.90
32502;DHT22;18952;52.516;13.460;2023-04-15T02:53:19;7.20;99.90
32502;DHT22;18952;52.516;13.460;2023-04-15T02:55:46;7.20;99.90
32502;DHT22;18952;52.516;13.460;2023-04-15T02:58:12;7.30;99.90
32502;DHT22;18952;52.516;13.460;2023-04-15T03:00:39;7.30;99.90
32502;DHT22;18952;52.516;13.460;2023-04-15T03:03:06;7.20;99.90
32502;DHT22;18952;52.516;13.460;2023-04-15T03:05:33;7.20;99.90
32502;DHT22;18952;52.516;13.460;2023-04-15T03:08:00;7.20;99.90
32502;DHT22;18952;52.516;13.460;2023-04-15T03:10:27;7.30;99.90
32502;DHT22;18952;52.516;13.460;2023-04-15T03:12:53;7.30;99.90
32502;DHT22;18952;52.516;13.460;2023-04-15T03:15:20;7.30;99.90
32502;DHT22;18952;52.516;13.460;2023-04-15T03:17:48;7.40;99.90
32502;DHT22;18952;52.516;13.460;2023-04-15T03:20:15;7.40;99.90
32502;DHT22;18952;52.516;13.460;2023-04-15T03:22:45;7.40;99.90
32502;DHT22;18952;52.516;13.460;2023-04-15T03:25:12;7.40;99.90
32502;DHT22;18952;52.516;13.460;2023-04-15T03:27:39;7.40;99.90
32502;DHT22;18952;52.516;13.460;2023-04-15T03:30:06;7.50;99.90
32502;DHT22;18952;52.516;13.460;2023-04-15T03:32:33;7.50;99.90
32502;DHT22;18952;52.516;13.460;2023-04-15T03:35:00;7.50;99.90
32502;DHT22;18952;52.516;13.460;2023-04-15T03:37:27;7.50;99.90
32502;DHT22;18952;52.516;13.460;2023-04-15T03:39:53;7.60;99.90
32502;DHT22;18952;52.516;13.460;2023-04-15T03:42:20;7.60;99.90
32502;DHT22;18952;52.516;13.460;2023-04-15T03:44:48;7.60;99.90
32502;DHT22;18952;52.516;13.460;2023-04-15T03:47:16;7.60;99.90
32502;DHT22;18952;52.516;13.460;2023-04-15T03:49:43;7.60;99.90
32502;DHT22;18952;52.516;13.460;2023-04-15T03:52:11;7.60;99.90
32502;DHT22;18952;52.516;13.460;2023-04-15T03:54:39;7.60;99.90
32502;DHT22;18952;52.516;13.460;2023-04-15T03:57:09;7.60;99.90
32502;DHT22;18952;52.516;13.460;2023-04-15T03:59:38;7.60;99.90
32502;DHT22;18952;52.516;13.460;2023-04-15T04:02:05;7.70;99.90
32502;DHT22;18952;52.516;13.460;2023-04-15T04:04:32;7.70;99.90
32502;DHT22;18952;52.516;13.460;2023-04-15T04:06:59;7.70;99.90
32502;DHT22;18952;52.516;13.460;2023-04-15T04:09:25;7.80;99.90
32502;DHT22;18952;52.516;13.460;2023-04-15T04:11:52;7.80;99.90
32502;DHT22;18952;52.516;13.460;2023-04-15T04:14:20;7.80;99.90
32502;DHT22;18952;52.516;13.460;2023-04-15T04:16:47;7.80;99.90
32502;DHT22;18952;52.516;13.460;2023-04-15T04:19:15;7.90;99.90
32502;DHT22;18952;52.516;13.460;2023-04-15T04:21:42;7.90;99.90
32502;DHT22;18952;52.516;13.460;2023-04-15T04:24:11;7.90;99.90
32502;DHT22;18952;52.516;13.460;2023-04-15T04:26:38;7.90;99.90
32502;DHT22;18952;52.516;13.460;2023-04-15T04:29:07;8.00;99.90
32502;DHT22;18952;52.516;13.460;2023-04-15T04:31:34;8.00;99.90
32502;DHT22;18952;52.516;13.460;2023-04-15T04:34:01;8.00;99.90
32502;DHT22;18952;52.516;13.460;2023-04-15T04:36:28;8.00;99.90
32502;DHT22;18952;52.516;13.460;2023-04-15T04:38:54;8.00;99.90
32502;DHT22;18952;52.516;13.460;2023-04-15T04:41:21;8.00;99.90
32502;DHT22;18952;52.516;13.460;2023-04-15T04:43:48;8.00;99.90
32502;DHT22;18952;52.516;13.460;2023-04-15T04:46:15;8.00;99.90
32502;DHT22;18952;52.516;13.460;2023-04-15T04:48:41;8.00;99.90
32502;DHT22;18952;52.516;13.460;2023-04-15T04:51:08;8.00;99.90
32502;DHT22;18952;52.516;13.460;2023-04-15T04:53:35;8.00;99.90
32502;DHT22;18952;52.516;13.460;2023-04-15T04:56:02;8.00;99.90
32502;DHT22;18952;52.516;13.460;2023-04-15T04:58:31;8.00;99.90
32502;DHT22;18952;52.516;13.460;2023-04-15T05:00:57;8.00;99.90
32502;DHT22;18952;52.516;13.460;2023-04-15T05:03:26;8.10;99.90
32502;DHT22;18952;52.516;13.460;2023-04-15T05:05:52;8.10;99.90
32502;DHT22;18952;52.516;13.460;2023-04-15T05:08:21;8.20;99.90
32502;DHT22;18952;52.516;13.460;2023-04-15T05:10:48;8.20;99.90
32502;DHT22;18952;52.516;13.460;2023-04-15T05:13:15;8.20;99.90
32502;DHT22;18952;52.516;13.460;2023-04-15T05:15:42;8.20;99.90
32502;DHT22;18952;52.516;13.460;2023-04-15T05:18:08;8.30;99.90
32502;DHT22;18952;52.516;13.460;2023-04-15T05:20:35;8.30;99.90
32502;DHT22;18952;52.516;13.460;2023-04-15T05:23:02;8.30;99.90
32502;DHT22;18952;52.516;13.460;2023-04-15T05:25:29;8.40;99.90
32502;DHT22;18952;52.516;13.460;2023-04-15T05:27:55;8.40;99.90
32502;DHT22;18952;52.516;13.460;2023-04-15T05:30:22;8.40;99.90
32502;DHT22;18952;52.516;13.460;2023-04-15T05:32:49;8.40;99.90
32502;DHT22;18952;52.516;13.460;2023-04-15T05:35:17;8.40;99.90
32502;DHT22;18952;52.516;13.460;2023-04-15T05:37:44;8.50;99.90
32502;DHT22;18952;52.516;13.460;2023-04-15T05:40:12;8.50;99.90
32502;DHT22;18952;52.516;13.460;2023-04-15T05:42:39;8.50;99.90
32502;DHT22;18952;52.516;13.460;2023-04-15T05:45:09;8.50;99.90
32502;DHT22;18952;52.516;13.460;2023-04-15T05:47:36;8.50;99.90
32502;DHT22;18952;52.516;13.460;2023-04-15T05:50:06;8.50;99.90
32502;DHT22;18952;52.516;13.460;2023-04-15T05:52:33;8.60;99.90
32502;DHT22;18952;52.516;13.460;2023-04-15T05:55:00;8.70;99.90
32502;DHT22;18952;52.516;13.460;2023-04-15T05:57:27;8.70;99.90
32502;DHT22;18952;52.516;13.460;2023-04-15T05:59:54;8.70;99.90
32502;DHT22;18952;52.516;13.460;2023-04-15T06:02:20;8.80;99.90
32502;DHT22;18952;52.516;13.460;2023-04-15T06:04:47;8.70;99.90
32502;DHT22;18952;52.516;13.460;2023-04-15T06:07:14;8.80;99.90
32502;DHT22;18952;52.516;13.460;2023-04-15T06:09:41;8.80;99.90
32502;DHT22;18952;52.516;13.460;2023-04-15T06:12:07;8.90;99.90
32502;DHT22;18952;52.516;13.460;2023-04-15T06:14:35;8.90;99.90
32502;DHT22;18952;52.516;13.460;2023-04-15T06:17:03;8.90;99.90
32502;DHT22;18952;52.516;13.460;2023-04-15T06:19:30;9.00;99.90
32502;DHT22;18952;52.516;13.460;2023-04-15T06:21:58;9.00;99.90
32502;DHT22;18952;52.516;13.460;2023-04-15T06:24:25;9.00;99.90
32502;DHT22;18952;52.516;13.460;2023-04-15T06:26:55;9.10;99.90
32502;DHT22;18952;52.516;13.460;2023-04-15T06:29:25;9.10;99.90
32502;DHT22;18952;52.516;13.460;2023-04-15T06:31:55;9.20;99.90
32502;DHT22;18952;52.516;13.460;2023-04-15T06:34:24;9.20;99.90
32502;DHT22;18952;52.516;13.460;2023-04-15T06:36:50;9.30;99.90
32502;DHT22;18952;52.516;13.460;2023-04-15T06:39:17;9.30;99.90
32502;DHT22;18952;52.516;13.460;2023-04-15T06:41:44;9.30;99.90
32502;DHT22;18952;52.516;13.460;2023-04-15T06:44:11;9.40;99.90
32502;DHT22;18952;52.516;13.460;2023-04-15T06:46:37;9.40;99.90
32502;DHT22;18952;52.516;13.460;2023-04-15T06:49:04;9.50;99.90
32502;DHT22;18952;52.516;13.460;2023-04-15T06:51:31;9.50;99.90
32502;DHT22;18952;52.516;13.460;2023-04-15T06:53:58;9.50;99.90
32502;DHT22;18952;52.516;13.460;2023-04-15T06:56:24;9.50;99.90
32502;DHT22;18952;52.516;13.460;2023-04-15T06:58:51;9.50;99.90
32502;DHT22;18952;52.516;13.460;2023-04-15T07:01:19;9.60;99.90
32502;DHT22;18952;52.516;13.460;2023-04-15T07:03:47;9.60;99.90
32502;DHT22;18952;52.516;13.460;2023-04-15T07:06:18;9.70;99.90
32502;DHT22;18952;52.516;13.460;2023-04-15T07:08:45;9.70;99.90
32502;DHT22;18952;52.516;13.460;2023-04-15T07:11:12;9.80;99.90
32502;DHT22;18952;52.516;13.460;2023-04-15T07:13:39;9.80;99.90
32502;DHT22;18952;52.516;13.460;2023-04-15T07:16:06;9.80;99.90
32502;DHT22;18952;52.516;13.460;2023-04-15T07:18:32;9.80;99.90
32502;DHT22;18952;52.516;13.460;2023-04-15T07:21:00;9.90;99.90
32502;DHT22;18952;52.516;13.460;2023-04-15T07:23:26;9.90;99.90
32502;DHT22;18952;52.516;13.460;2023-04-15T07:25:53;10.00;99.90
32502;DHT22;18952;52.516;13.460;2023-04-15T07:28:20;10.10;99.90
32502;DHT22;18952;52.516;13.460;2023-04-15T07:30:48;10.10;99.90
32502;DHT22;18952;52.516;13.460;2023-04-15T07:33:15;10.10;99.90
32502;DHT22;18952;52.516;13.460;2023-04-15T07:35:43;10.10;99.90
32502;DHT22;18952;52.516;13.460;2023-04-15T07:38:11;10.10;99.90
32502;DHT22;18952;52.516;13.460;2023-04-15T07:40:39;10.10;99.90
32502;DHT22;18952;52.516;13.460;2023-04-15T07:43:06;10.10;99.90
32502;DHT22;18952;52.516;13.460;2023-04-15T07:45:43;10.10;99.90
32502;DHT22;18952;52.516;13.460;2023-04-15T07:48:11;10.10;99.90
32502;DHT22;18952;52.516;13.460;2023-04-15T07:50:38;10.00;99.90
32502;DHT22;18952;52.516;13.460;2023-04-15T07:53:06;10.00;99.90
32502;DHT22;18952;52.516;13.460;2023-04-15T07:55:33;10.00;99.90
32502;DHT22;18952;52.516;13.460;2023-04-15T07:57:59;10.00;99.90
32502;DHT22;18952;52.516;13.460;2023-04-15T08:00:26;9.90;99.90
32502;DHT22;18952;52.516;13.460;2023-04-15T08:02:53;9.90;99.90
32502;DHT22;18952;52.516;13.460;2023-04-15T08:05:20;9.90;99.90
32502;DHT22;18952;52.516;13.460;2023-04-15T08:07:47;9.90;99.90
32502;DHT22;18952;52.516;13.460;2023-04-15T08:10:14;9.90;99.90
32502;DHT22;18952;52.516;13.460;2023-04-15T08:12:40;9.90;99.90
32502;DHT22;18952;52.516;13.460;2023-04-15T08:15:07;10.00;99.90
32502;DHT22;18952;52.516;13.460;2023-04-15T08:17:34;10.00;99.90
32502;DHT22;18952;52.516;13.460;2023-04-15T08:20:02;10.00;99.90
32502;DHT22;18952;52.516;13.460;2023-04-15T08:22:28;10.00;99.90
32502;DHT22;18952;52.516;13.460;2023-04-15T08:24:55;10.00;99.90
32502;DHT22;18952;52.516;13.460;2023-04-15T08:27:23;9.90;99.90
32502;DHT22;18952;52.516;13.460;2023-04-15T08:29:50;9.90;99.90
32502;DHT22;18952;52.516;13.460;2023-04-15T08:32:17;9.90;99.90
32502;DHT22;18952;52.516;13.460;2023-04-15T08:34:43;9.90;99.90
32502;DHT22;18952;52.516;13.460;2023-04-15T08:37:10;9.90;99.90
32502;DHT22;18952;52.516;13.460;2023-04-15T08:39:38;9.90;99.90
32502;DHT22;18952;52.516;13.460;2023-04-15T08:42:10;9.90;99.90
32502;DHT22;18952;52.516;13.460;2023-04-15T08:44:37;10.00;99.90
32502;DHT22;18952;52.516;13.460;2023-04-15T08:47:07;10.00;99.90
32502;DHT22;18952;52.516;13.460;2023-04-15T08:49:39;10.10;99.90
32502;DHT22;18952;52.516;13.460;2023-04-15T08:52:06;10.10;99.90
32502;DHT22;18952;52.516;13.460;2023-04-15T08:54:34;10.10;99.90
32502;DHT22;18952;52.516;13.460;2023-04-15T08:57:00;10.10;99.90
32502;DHT22;18952;52.516;13.460;2023-04-15T08:59:29;10.10;99.90
32502;DHT22;18952;52.516;13.460;2023-04-15T09:01:57;10.10;99.90
32502;DHT22;18952;52.516;13.460;2023-04-15T09:04:23;10.10;99.90
32502;DHT22;18952;52.516;13.460;2023-04-15T09:06:50;10.10;99.90
32502;DHT22;18952;52.516;13.460;2023-04-15T09:09:18;10.10;99.90
32502;DHT22;18952;52.516;13.460;2023-04-15T09:11:45;10.20;99.90
32502;DHT22;18952;52.516;13.460;2023-04-15T09:14:13;10.20;99.90
32502;DHT22;18952;52.516;13.460;2023-04-15T09:17:00;10.20;99.90
32502;DHT22;18952;52.516;13.460;2023-04-15T09:19:27;10.20;99.90
32502;DHT22;18952;52.516;13.460;2023-04-15T09:21:56;10.30;99.90
32502;DHT22;18952;52.516;13.460;2023-04-15T09:24:27;10.30;99.90
32502;DHT22;18952;52.516;13.460;2023-04-15T09:26:59;10.30;99.90
32502;DHT22;18952;52.516;13.460;2023-04-15T09:29:26;10.30;99.90
32502;DHT22;18952;52.516;13.460;2023-04-15T09:31:54;10.30;99.90
32502;DHT22;18952;52.516;13.460;2023-04-15T09:34:21;10.30;99.90
32502;DHT22;18952;52.516;13.460;2023-04-15T09:37:01;10.30;99.90
32502;DHT22;18952;52.516;13.460;2023-04-15T09:39:51;10.30;99.90
32502;DHT22;18952;52.516;13.460;2023-04-15T09:42:19;10.30;99.90
32502;DHT22;18952;52.516;13.460;2023-04-15T09:44:46;10.30;99.90
32502;DHT22;18952;52.516;13.460;2023-04-15T09:47:29;10.30;99.90
32502;DHT22;18952;52.516;13.460;2023-04-15T09:49:58;10.30;99.90
32502;DHT22;18952;52.516;13.460;2023-04-15T09:52:30;10.40;99.90
32502;DHT22;18952;52.516;13.460;2023-04-15T09:55:01;10.40;99.90
32502;DHT22;18952;52.516;13.460;2023-04-15T09:57:38;10.30;99.90
32502;DHT22;18952;52.516;13.460;2023-04-15T10:00:08;10.40;99.90
32502;DHT22;18952;52.516;13.460;2023-04-15T10:02:36;10.40;99.90
32502;DHT22;18952;52.516;13.460;2023-04-15T10:05:08;10.30;99.90
32502;DHT22;18952;52.516;13.460;2023-04-15T10:07:37;10.30;99.90
32502;DHT22;18952;52.516;13.460;2023-04-15T10:10:05;10.30;99.90
32502;DHT22;18952;52.516;13.460;2023-04-15T10:12:32;10.20;99.90
32502;DHT22;18952;52.516;13.460;2023-04-15T10:15:03;10.20;99.90
32502;DHT22;18952;52.516;13.460;2023-04-15T10:17:32;10.30;99.90
32502;DHT22;18952;52.516;13.460;2023-04-15T10:20:00;10.20;99.90
32502;DHT22;18952;52.516;13.460;2023-04-15T10:22:28;10.20;99.90
32502;DHT22;18952;52.516;13.460;2023-04-15T10:24:58;10.30;99.90
32502;DHT22;18952;52.516;13.460;2023-04-15T10:27:25;10.20;99.90
32502;DHT22;18952;52.516;13.460;2023-04-15T10:29:53;10.20;99.90
32502;DHT22;18952;52.516;13.460;2023-04-15T10:32:21;10.30;99.90
32502;DHT22;18952;52.516;13.460;2023-04-15T10:34:50;10.20;99.90
32502;DHT22;18952;52.516;13.460;2023-04-15T10:37:34;10.20;99.90
32502;DHT22;18952;52.516;13.460;2023-04-15T10:40:25;10.30;99.90
32502;DHT22;18952;52.516;13.460;2023-04-15T10:42:55;10.40;99.90
32502;DHT22;18952;52.516;13.460;2023-04-15T10:45:25;10.40;99.90
32502;DHT22;18952;52.516;13.460;2023-04-15T10:47:55;10.40;99.90
32502;DHT22;18952;52.516;13.460;2023-04-15T10:50:25;10.50;99.90
32502;DHT22;18952;52.516;13.460;2023-04-15T10:52:52;10.50;99.90
32502;DHT22;18952;52.516;13.460;2023-04-15T10:55:23;10.50;99.90
32502;DHT22;18952;52.516;13.460;2023-04-15T10:57:52;10.60;99.90
32502;DHT22;18952;52.516;13.460;2023-04-15T11:00:23;10.60;99.90
32502;DHT22;18952;52.516;13.460;2023-04-15T11:02:54;10.60;99.90
32502;DHT22;18952;52.516;13.460;2023-04-15T11:08:11;10.70;99.90
32502;DHT22;18952;52.516;13.460;2023-04-15T11:13:15;10.60;99.90
32502;DHT22;18952;52.516;13.460;2023-04-15T11:15:43;10.60;99.90
32502;DHT22;18952;52.516;13.460;2023-04-15T11:18:18;10.60;99.90
32502;DHT22;18952;52.516;13.460;2023-04-15T11:23:14;10.60;99.90
32502;DHT22;18952;52.516;13.460;2023-04-15T11:25:42;10.60;99.90
32502;DHT22;18952;52.516;13.460;2023-04-15T11:28:10;10.50;99.90
32502;DHT22;18952;52.516;13.460;2023-04-15T11:30:39;10.60;99.90
32502;DHT22;18952;52.516;13.460;2023-04-15T11:33:08;10.50;99.90
32502;DHT22;18952;52.516;13.460;2023-04-15T11:35:37;10.50;99.90
32502;DHT22;18952;52.516;13.460;2023-04-15T11:38:05;10.60;99.90
32502;DHT22;18952;52.516;13.460;2023-04-15T11:40:35;10.60;99.90
32502;DHT22;18952;52.516;13.460;2023-04-15T11:43:12;10.60;99.90
32502;DHT22;18952;52.516;13.460;2023-04-15T11:45:54;10.60;99.90
32502;DHT22;18952;52.516;13.460;2023-04-15T11:48:26;10.60;99.90
32502;DHT22;18952;52.516;13.460;2023-04-15T11:50:54;10.60;99.90
32502;DHT22;18952;52.516;13.460;2023-04-15T11:53:22;10.60;99.90
32502;DHT22;18952;52.516;13.460;2023-04-15T11:55:51;10.50;99.90
32502;DHT22;18952;52.516;13.460;2023-04-15T11:58:28;10.60;99.90
32502;DHT22;18952;52.516;13.460;2023-04-15T12:00:57;10.50;99.90
32502;DHT22;18952;52.516;13.460;2023-04-15T12:03:48;10.50;99.90
32502;DHT22;18952;52.516;13.460;2023-04-15T12:06:18;10.50;99.90
32502;DHT22;18952;52.516;13.460;2023-04-15T12:08:58;10.50;99.90
32502;DHT22;18952;52.516;13.460;2023-04-15T12:11:51;10.50;99.90
32502;DHT22;18952;52.516;13.460;2023-04-15T12:14:24;10.50;99.90
32502;DHT22;18952;52.516;13.460;2023-04-15T12:16:53;10.60;99.90
32502;DHT22;18952;52.516;13.460;2023-04-15T12:19:34;10.60;99.90
32502;DHT22;18952;52.516;13.460;2023-04-15T12:22:08;10.70;99.90
32502;DHT22;18952;52.516;13.460;2023-04-15T12:24:37;10.70;99.90
32502;DHT22;18952;52.516;13.460;2023-04-15T12:27:05;10.80;99.90
32502;DHT22;18952;52.516;13.460;2023-04-15T12:29:35;10.80;99.90
32502;DHT22;18952;52.516;13.460;2023-04-15T12:34:52;11.00;99.90
32502;DHT22;18952;52.516;13.460;2023-04-15T12:37:19;11.00;99.90
32502;DHT22;18952;52.516;13.460;2023-04-15T12:39:47;11.00;99.90
32502;DHT22;18952;52.516;13.460;2023-04-15T12:42:16;11.00;99.90
32502;DHT22;18952;52.516;13.460;2023-04-15T12:44:44;11.00;99.90
32502;DHT22;18952;52.516;13.460;2023-04-15T12:47:12;11.10;99.90
32502;DHT22;18952;52.516;13.460;2023-04-15T12:49:39;11.10;99.90
32502;DHT22;18952;52.516;13.460;2023-04-15T12:52:08;11.20;99.90
32502;DHT22;18952;52.516;13.460;2023-04-15T12:54:36;11.20;99.90
32502;DHT22;18952;52.516;13.460;2023-04-15T12:57:05;11.20;99.90
32502;DHT22;18952;52.516;13.460;2023-04-15T12:59:40;11.20;99.90
32502;DHT22;18952;52.516;13.460;2023-04-15T13:02:07;11.10;99.90
32502;DHT22;18952;52.516;13.460;2023-04-15T13:04:39;11.10;99.90
32502;DHT22;18952;52.516;13.460;2023-04-15T13:07:10;11.00;99.90
32502;DHT22;18952;52.516;13.460;2023-04-15T13:09:37;11.00;99.90
32502;DHT22;18952;52.516;13.460;2023-04-15T13:12:04;11.00;99.90
32502;DHT22;18952;52.516;13.460;2023-04-15T13:14:31;10.90;99.90
32502;DHT22;18952;52.516;13.460;2023-04-15T13:16:58;10.90;99.90
32502;DHT22;18952;52.516;13.460;2023-04-15T13:19:25;10.90;99.90
32502;DHT22;18952;52.516;13.460;2023-04-15T13:21:52;10.90;99.90
32502;DHT22;18952;52.516;13.460;2023-04-15T13:24:18;10.80;99.90
32502;DHT22;18952;52.516;13.460;2023-04-15T13:26:45;10.90;99.90
32502;DHT22;18952;52.516;13.460;2023-04-15T13:29:15;10.80;99.90
32502;DHT22;18952;52.516;13.460;2023-04-15T13:31:43;10.90;99.90
32502;DHT22;18952;52.516;13.460;2023-04-15T13:34:10;11.00;99.90
32502;DHT22;18952;52.516;13.460;2023-04-15T13:36:38;11.00;99.90
32502;DHT22;18952;52.516;13.460;2023-04-15T13:39:04;10.90;99.90
32502;DHT22;18952;52.516;13.460;2023-04-15T13:41:32;11.00;99.90
32502;DHT22;18952;52.516;13.460;2023-04-15T13:44:00;10.90;99.90
32502;DHT22;18952;52.516;13.460;2023-04-15T13:46:29;10.90;99.90
32502;DHT22;18952;52.516;13.460;2023-04-15T13:48:57;10.90;99.90
32502;DHT22;18952;52.516;13.460;2023-04-15T13:51:24;10.90;99.90
32502;DHT22;18952;52.516;13.460;2023-04-15T13:53:51;10.90;99.90
32502;DHT22;18952;52.516;13.460;2023-04-15T13:56:18;10.90;99.90
32502;DHT22;18952;52.516;13.460;2023-04-15T13:58:45;10.90;99.90
32502;DHT22;18952;52.516;13.460;2023-04-15T14:01:12;10.90;99.90
32502;DHT22;18952;52.516;13.460;2023-04-15T14:03:38;10.80;99.90
32502;DHT22;18952;52.516;13.460;2023-04-15T14:06:06;10.80;99.90
32502;DHT22;18952;52.516;13.460;2023-04-15T14:08:33;10.70;99.90
32502;DHT22;18952;52.516;13.460;2023-04-15T14:11:01;10.70;99.90
32502;DHT22;18952;52.516;13.460;2023-04-15T14:13:28;10.70;99.90
32502;DHT22;18952;52.516;13.460;2023-04-15T14:15:56;10.60;99.90
32502;DHT22;18952;52.516;13.460;2023-04-15T14:18:24;10.60;99.90
32502;DHT22;18952;52.516;13.460;2023-04-15T14:20:51;10.70;99.90
32502;DHT22;18952;52.516;13.460;2023-04-15T14:23:17;10.70;99.90
32502;DHT22;18952;52.516;13.460;2023-04-15T14:25:44;10.70;99.90
32502;DHT22;18952;52.516;13.460;2023-04-15T14:28:14;10.70;99.90
32502;DHT22;18952;52.516;13.460;2023-04-15T14:30:42;10.70;99.90
32502;DHT22;18952;52.516;13.460;2023-04-15T14:33:11;10.70;99.90
32502;DHT22;18952;52.516;13.460;2023-04-15T14:35:39;10.70;99.90
32502;DHT22;18952;52.516;13.460;2023-04-15T14:38:07;10.70;99.90
32502;DHT22;18952;52.516;13.460;2023-04-15T14:40:33;10.70;99.90
32502;DHT22;18952;52.516;13.460;2023-04-15T14:43:01;10.70;99.90
32502;DHT22;18952;52.516;13.460;2023-04-15T14:45:29;10.70;99.90
32502;DHT22;18952;52.516;13.460;2023-04-15T14:47:56;10.70;99.90
32502;DHT22;18952;52.516;13.460;2023-04-15T14:50:22;10.60;99.90
32502;DHT22;18952;52.516;13.460;2023-04-15T14:52:49;10.60;99.90
32502;DHT22;18952;52.516;13.460;2023-04-15T14:55:16;10.60;99.90
32502;DHT22;18952;52.516;13.460;2023-04-15T14:57:44;10.60;99.90
32502;DHT22;18952;52.516;13.460;2023-04-15T15:00:12;10.60;99.90
32502;DHT22;18952;52.516;13.460;2023-04-15T15:02:42;10.60;99.90
32502;DHT22;18952;52.516;13.460;2023-04-15T15:05:11;10.50;99.90
32502;DHT22;18952;52.516;13.460;2023-04-15T15:07:38;10.50;99.90
32502;DHT22;18952;52.516;13.460;2023-04-15T15:10:06;10.50;99.90
32502;DHT22;18952;52.516;13.460;2023-04-15T15:12:33;10.50;99.90
32502;DHT22;18952;52.516;13.460;2023-04-15T15:15:01;10.50;99.90
32502;DHT22;18952;52.516;13.460;2023-04-15T15:17:35;10.50;99.90
32502;DHT22;18952;52.516;13.460;2023-04-15T15:20:02;10.50;99.90
32502;DHT22;18952;52.516;13.460;2023-04-15T15:22:29;10.50;99.90
32502;DHT22;18952;52.516;13.460;2023-04-15T15:24:55;10.40;99.90
32502;DHT22;18952;52.516;13.460;2023-04-15T15:27:22;10.40;99.90
32502;DHT22;18952;52.516;13.460;2023-04-15T15:29:49;10.40;99.90
32502;DHT22;18952;52.516;13.460;2023-04-15T15:32:17;10.30;99.90
32502;DHT22;18952;52.516;13.460;2023-04-15T15:34:43;10.40;99.90
32502;DHT22;18952;52.516;13.460;2023-04-15T15:37:11;10.40;99.90
32502;DHT22;18952;52.516;13.460;2023-04-15T15:39:39;10.30;99.90